sensor_id;sensor_type;location;lat;lon;timestamp;P1;durP1;ratioP1;P2;durP2;ratioP2
69081;SDS011;69029;51.986;5.760;2023-04-29T00:00:15;29.85;;;16.98;;
69081;SDS011;69029;51.986;5.760;2023-04-29T00:02:41;33.45;;;17.17;;
69081;SDS011;69029;51.986;5.760;2023-04-29T00:05:07;30.00;;;17.55;;
69081;SDS011;69029;51.986;5.760;2023-04-29T00:07:33;27.27;;;16.20;;
69081;SDS011;69029;51.986;5.760;2023-04-29T00:10:00;29.98;;;16.98;;
69081;SDS011;69029;51.986;5.760;2023-04-29T00:12:26;33.22;;;17.35;;
69081;SDS011;69029;51.986;5.760;2023-04-29T00:14:54;30.65;;;16.67;;
69081;SDS011;69029;51.986;5.760;2023-04-29T00:17:19;27.63;;;14.88;;
69081;SDS011;69029;51.986;5.760;2023-04-29T00:19:45;28.38;;;16.55;;
69081;SDS011;69029;51.986;5.760;2023-04-29T00:22:11;35.15;;;17.05;;
69081;SDS011;69029;51.986;5.760;2023-04-29T00:24:37;26.95;;;16.15;;
69081;SDS011;69029;51.986;5.760;2023-04-29T00:27:03;27.67;;;16.73;;
69081;SDS011;69029;51.986;5.760;2023-04-29T00:29:30;27.90;;;16.27;;
69081;SDS011;69029;51.986;5.760;2023-04-29T00:31:55;26.67;;;15.90;;
69081;SDS011;69029;51.986;5.760;2023-04-29T00:34:21;31.73;;;16.75;;
69081;SDS011;69029;51.986;5.760;2023-04-29T00:36:46;31.42;;;16.27;;
69081;SDS011;69029;51.986;5.760;2023-04-29T00:39:12;32.80;;;16.60;;
69081;SDS011;69029;51.986;5.760;2023-04-29T00:41:38;27.20;;;14.70;;
69081;SDS011;69029;51.986;5.760;2023-04-29T00:44:04;29.33;;;16.38;;
69081;SDS011;69029;51.986;5.760;2023-04-29T00:46:29;32.13;;;17.58;;
69081;SDS011;69029;51.986;5.760;2023-04-29T00:48:55;28.52;;;14.38;;
69081;SDS011;69029;51.986;5.760;2023-04-29T00:51:21;26.52;;;14.90;;
69081;SDS011;69029;51.986;5.760;2023-04-29T00:53:46;26.33;;;14.45;;
69081;SDS011;69029;51.986;5.760;2023-04-29T00:56:12;27.25;;;15.27;;
69081;SDS011;69029;51.986;5.760;2023-04-29T00:58:40;27.83;;;15.85;;
69081;SDS011;69029;51.986;5.760;2023-04-29T01:01:09;27.08;;;15.60;;
69081;SDS011;69029;51.986;5.760;2023-04-29T01:03:36;28.80;;;16.80;;
69081;SDS011;69029;51.986;5.760;2023-04-29T01:06:12;28.73;;;15.75;;
69081;SDS011;69029;51.986;5.760;2023-04-29T01:11:20;32.20;;;15.63;;
69081;SDS011;69029;51.986;5.760;2023-04-29T01:13:58;28.02;;;15.27;;
69081;SDS011;69029;51.986;5.760;2023-04-29T01:18:57;29.23;;;16.02;;
69081;SDS011;69029;51.986;5.760;2023-04-29T01:21:28;25.88;;;15.40;;
69081;SDS011;69029;51.986;5.760;2023-04-29T01:23:55;26.40;;;14.82;;
69081;SDS011;69029;51.986;5.760;2023-04-29T01:26:24;32.28;;;15.65;;
69081;SDS011;69029;51.986;5.760;2023-04-29T01:32:05;33.00;;;15.95;;
69081;SDS011;69029;51.986;5.760;2023-04-29T01:34:37;29.60;;;15.38;;
69081;SDS011;69029;51.986;5.760;2023-04-29T01:37:26;27.33;;;14.75;;
69081;SDS011;69029;51.986;5.760;2023-04-29T01:43:07;25.80;;;15.45;;
69081;SDS011;69029;51.986;5.760;2023-04-29T01:45:35;27.58;;;14.82;;
69081;SDS011;69029;51.986;5.760;2023-04-29T01:48:05;30.23;;;14.30;;
69081;SDS011;69029;51.986;5.760;2023-04-29T01:50:31;26.58;;;14.60;;
69081;SDS011;69029;51.986;5.760;2023-04-29T01:52:57;26.88;;;14.68;;
69081;SDS011;69029;51.986;5.760;2023-04-29T01:55:22;23.85;;;14.25;;
69081;SDS011;69029;51.986;5.760;2023-04-29T01:57:48;29.23;;;15.40;;
69081;SDS011;69029;51.986;5.760;2023-04-29T02:00:14;25.25;;;13.75;;
69081;SDS011;69029;51.986;5.760;2023-04-29T02:02:39;29.85;;;15.00;;
69081;SDS011;69029;51.986;5.760;2023-04-29T02:05:05;25.73;;;14.40;;
69081;SDS011;69029;51.986;5.760;2023-04-29T02:07:31;27.13;;;15.40;;
69081;SDS011;69029;51.986;5.760;2023-04-29T02:09:57;28.55;;;15.43;;
69081;SDS011;69029;51.986;5.760;2023-04-29T02:12:22;23.08;;;12.68;;
69081;SDS011;69029;51.986;5.760;2023-04-29T02:14:51;27.88;;;14.50;;
69081;SDS011;69029;51.986;5.760;2023-04-29T02:17:17;26.88;;;15.00;;
69081;SDS011;69029;51.986;5.760;2023-04-29T02:19:43;31.63;;;15.63;;
69081;SDS011;69029;51.986;5.760;2023-04-29T02:22:08;24.42;;;14.45;;
69081;SDS011;69029;51.986;5.760;2023-04-29T02:24:36;28.60;;;15.25;;
69081;SDS011;69029;51.986;5.760;2023-04-29T02:27:02;26.05;;;14.63;;
69081;SDS011;69029;51.986;5.760;2023-04-29T02:29:29;27.70;;;14.57;;
69081;SDS011;69029;51.986;5.760;2023-04-29T02:31:55;29.00;;;14.43;;
69081;SDS011;69029;51.986;5.760;2023-04-29T02:34:21;25.20;;;13.27;;
69081;SDS011;69029;51.986;5.760;2023-04-29T02:36:48;28.88;;;14.13;;
69081;SDS011;69029;51.986;5.760;2023-04-29T02:39:13;27.85;;;13.55;;
69081;SDS011;69029;51.986;5.760;2023-04-29T02:41:39;27.95;;;14.55;;
69081;SDS011;69029;51.986;5.760;2023-04-29T02:44:06;27.85;;;14.98;;
69081;SDS011;69029;51.986;5.760;2023-04-29T02:46:32;25.08;;;15.20;;
69081;SDS011;69029;51.986;5.760;2023-04-29T02:48:59;27.00;;;14.40;;
69081;SDS011;69029;51.986;5.760;2023-04-29T02:51:26;27.98;;;14.38;;
69081;SDS011;69029;51.986;5.760;2023-04-29T02:53:52;22.75;;;13.75;;
69081;SDS011;69029;51.986;5.760;2023-04-29T02:56:17;23.52;;;14.02;;
69081;SDS011;69029;51.986;5.760;2023-04-29T02:58:43;23.02;;;13.10;;
69081;SDS011;69029;51.986;5.760;2023-04-29T03:01:09;25.98;;;13.48;;
69081;SDS011;69029;51.986;5.760;2023-04-29T03:03:35;24.02;;;13.90;;
69081;SDS011;69029;51.986;5.760;2023-04-29T03:06:00;24.35;;;14.00;;
69081;SDS011;69029;51.986;5.760;2023-04-29T03:08:27;30.73;;;13.60;;
69081;SDS011;69029;51.986;5.760;2023-04-29T03:10:52;22.08;;;13.15;;
69081;SDS011;69029;51.986;5.760;2023-04-29T03:13:18;26.35;;;12.63;;
69081;SDS011;69029;51.986;5.760;2023-04-29T03:15:45;28.15;;;13.60;;
69081;SDS011;69029;51.986;5.760;2023-04-29T03:18:10;28.85;;;13.93;;
69081;SDS011;69029;51.986;5.760;2023-04-29T03:20:36;27.02;;;13.77;;
69081;SDS011;69029;51.986;5.760;2023-04-29T03:23:01;27.45;;;14.18;;
69081;SDS011;69029;51.986;5.760;2023-04-29T03:25:27;27.58;;;13.75;;
69081;SDS011;69029;51.986;5.760;2023-04-29T03:27:53;26.75;;;13.57;;
69081;SDS011;69029;51.986;5.760;2023-04-29T03:30:18;22.70;;;13.50;;
69081;SDS011;69029;51.986;5.760;2023-04-29T03:32:44;25.90;;;13.10;;
69081;SDS011;69029;51.986;5.760;2023-04-29T03:35:09;26.45;;;12.82;;
69081;SDS011;69029;51.986;5.760;2023-04-29T03:37:40;22.42;;;12.25;;
69081;SDS011;69029;51.986;5.760;2023-04-29T03:40:08;21.88;;;12.43;;
69081;SDS011;69029;51.986;5.760;2023-04-29T03:42:35;21.98;;;12.65;;
69081;SDS011;69029;51.986;5.760;2023-04-29T03:45:00;25.70;;;12.85;;
69081;SDS011;69029;51.986;5.760;2023-04-29T03:47:26;21.35;;;11.80;;
69081;SDS011;69029;51.986;5.760;2023-04-29T03:49:51;27.40;;;12.77;;
69081;SDS011;69029;51.986;5.760;2023-04-29T03:52:17;25.50;;;13.25;;
69081;SDS011;69029;51.986;5.760;2023-04-29T03:54:43;25.67;;;12.63;;
69081;SDS011;69029;51.986;5.760;2023-04-29T03:57:08;19.48;;;12.15;;
69081;SDS011;69029;51.986;5.760;2023-04-29T03:59:34;22.42;;;12.18;;
69081;SDS011;69029;51.986;5.760;2023-04-29T04:02:00;25.55;;;12.70;;
69081;SDS011;69029;51.986;5.760;2023-04-29T04:04:25;21.30;;;12.18;;
69081;SDS011;69029;51.986;5.760;2023-04-29T04:06:51;27.23;;;12.45;;
69081;SDS011;69029;51.986;5.760;2023-04-29T04:09:16;19.38;;;11.48;;
69081;SDS011;69029;51.986;5.760;2023-04-29T04:11:42;24.33;;;12.20;;
69081;SDS011;69029;51.986;5.760;2023-04-29T04:14:08;23.13;;;11.63;;
69081;SDS011;69029;51.986;5.760;2023-04-29T04:16:34;19.80;;;11.10;;
69081;SDS011;69029;51.986;5.760;2023-04-29T04:19:00;26.75;;;11.80;;
69081;SDS011;69029;51.986;5.760;2023-04-29T04:21:25;19.30;;;11.27;;
69081;SDS011;69029;51.986;5.760;2023-04-29T04:23:51;22.23;;;12.05;;
69081;SDS011;69029;51.986;5.760;2023-04-29T04:26:17;20.95;;;12.13;;
69081;SDS011;69029;51.986;5.760;2023-04-29T04:28:44;23.63;;;12.70;;
69081;SDS011;69029;51.986;5.760;2023-04-29T04:31:10;18.58;;;11.85;;
69081;SDS011;69029;51.986;5.760;2023-04-29T04:33:38;19.65;;;11.20;;
69081;SDS011;69029;51.986;5.760;2023-04-29T04:36:04;20.48;;;11.95;;
69081;SDS011;69029;51.986;5.760;2023-04-29T04:38:30;21.13;;;11.18;;
69081;SDS011;69029;51.986;5.760;2023-04-29T04:40:57;21.30;;;11.70;;
69081;SDS011;69029;51.986;5.760;2023-04-29T04:43:22;23.00;;;11.55;;
69081;SDS011;69029;51.986;5.760;2023-04-29T04:45:48;24.85;;;11.38;;
69081;SDS011;69029;51.986;5.760;2023-04-29T04:48:14;21.30;;;12.07;;
69081;SDS011;69029;51.986;5.760;2023-04-29T04:50:40;25.75;;;12.25;;
69081;SDS011;69029;51.986;5.760;2023-04-29T04:53:05;20.77;;;11.73;;
69081;SDS011;69029;51.986;5.760;2023-04-29T04:55:31;18.67;;;11.90;;
69081;SDS011;69029;51.986;5.760;2023-04-29T04:58:00;19.60;;;12.00;;
69081;SDS011;69029;51.986;5.760;2023-04-29T05:00:26;21.05;;;12.25;;
69081;SDS011;69029;51.986;5.760;2023-04-29T05:02:51;21.40;;;12.75;;
69081;SDS011;69029;51.986;5.760;2023-04-29T05:05:17;19.38;;;11.85;;
69081;SDS011;69029;51.986;5.760;2023-04-29T05:07:43;20.35;;;12.15;;
69081;SDS011;69029;51.986;5.760;2023-04-29T05:10:08;18.77;;;11.57;;
69081;SDS011;69029;51.986;5.760;2023-04-29T05:12:37;17.30;;;11.52;;
69081;SDS011;69029;51.986;5.760;2023-04-29T05:15:02;21.77;;;12.25;;
69081;SDS011;69029;51.986;5.760;2023-04-29T05:17:28;18.83;;;10.82;;
69081;SDS011;69029;51.986;5.760;2023-04-29T05:19:54;17.35;;;12.02;;
69081;SDS011;69029;51.986;5.760;2023-04-29T05:22:20;23.65;;;11.98;;
69081;SDS011;69029;51.986;5.760;2023-04-29T05:24:46;22.52;;;11.93;;
69081;SDS011;69029;51.986;5.760;2023-04-29T05:27:16;21.38;;;11.48;;
69081;SDS011;69029;51.986;5.760;2023-04-29T05:29:42;19.98;;;12.10;;
69081;SDS011;69029;51.986;5.760;2023-04-29T05:32:08;24.15;;;12.20;;
69081;SDS011;69029;51.986;5.760;2023-04-29T05:34:34;19.50;;;11.90;;
69081;SDS011;69029;51.986;5.760;2023-04-29T05:36:59;17.42;;;11.75;;
69081;SDS011;69029;51.986;5.760;2023-04-29T05:39:25;20.52;;;11.85;;
69081;SDS011;69029;51.986;5.760;2023-04-29T05:41:51;21.20;;;12.13;;
69081;SDS011;69029;51.986;5.760;2023-04-29T05:44:16;16.40;;;11.02;;
69081;SDS011;69029;51.986;5.760;2023-04-29T05:46:42;19.25;;;11.25;;
69081;SDS011;69029;51.986;5.760;2023-04-29T05:49:08;22.40;;;11.68;;
69081;SDS011;69029;51.986;5.760;2023-04-29T05:51:33;20.52;;;11.90;;
69081;SDS011;69029;51.986;5.760;2023-04-29T05:53:59;19.73;;;11.68;;
69081;SDS011;69029;51.986;5.760;2023-04-29T05:56:24;19.25;;;12.23;;
69081;SDS011;69029;51.986;5.760;2023-04-29T05:58:50;18.33;;;11.40;;
69081;SDS011;69029;51.986;5.760;2023-04-29T06:01:16;21.92;;;11.30;;
69081;SDS011;69029;51.986;5.760;2023-04-29T06:03:42;18.98;;;10.95;;
69081;SDS011;69029;51.986;5.760;2023-04-29T06:06:10;16.58;;;10.98;;
69081;SDS011;69029;51.986;5.760;2023-04-29T06:08:36;21.30;;;11.38;;
69081;SDS011;69029;51.986;5.760;2023-04-29T06:11:02;22.23;;;12.07;;
69081;SDS011;69029;51.986;5.760;2023-04-29T06:13:29;16.63;;;10.77;;
69081;SDS011;69029;51.986;5.760;2023-04-29T06:15:56;17.83;;;11.05;;
69081;SDS011;69029;51.986;5.760;2023-04-29T06:18:21;14.45;;;9.10;;
69081;SDS011;69029;51.986;5.760;2023-04-29T06:20:47;17.63;;;11.40;;
69081;SDS011;69029;51.986;5.760;2023-04-29T06:23:13;17.88;;;11.15;;
69081;SDS011;69029;51.986;5.760;2023-04-29T06:25:39;14.35;;;10.77;;
69081;SDS011;69029;51.986;5.760;2023-04-29T06:28:05;16.73;;;10.23;;
69081;SDS011;69029;51.986;5.760;2023-04-29T06:30:32;16.48;;;10.02;;
69081;SDS011;69029;51.986;5.760;2023-04-29T06:32:58;18.15;;;10.07;;
69081;SDS011;69029;51.986;5.760;2023-04-29T06:35:23;16.23;;;10.13;;
69081;SDS011;69029;51.986;5.760;2023-04-29T06:37:49;21.92;;;10.82;;
69081;SDS011;69029;51.986;5.760;2023-04-29T06:40:14;19.67;;;10.52;;
69081;SDS011;69029;51.986;5.760;2023-04-29T06:42:40;17.08;;;10.32;;
69081;SDS011;69029;51.986;5.760;2023-04-29T06:45:07;17.77;;;10.85;;
69081;SDS011;69029;51.986;5.760;2023-04-29T06:47:39;18.52;;;10.85;;
69081;SDS011;69029;51.986;5.760;2023-04-29T06:50:05;19.35;;;9.98;;
69081;SDS011;69029;51.986;5.760;2023-04-29T06:52:31;17.25;;;9.82;;
69081;SDS011;69029;51.986;5.760;2023-04-29T06:54:57;19.33;;;10.18;;
69081;SDS011;69029;51.986;5.760;2023-04-29T06:57:22;19.65;;;10.40;;
69081;SDS011;69029;51.986;5.760;2023-04-29T06:59:48;22.20;;;10.70;;
69081;SDS011;69029;51.986;5.760;2023-04-29T07:02:14;17.48;;;10.38;;
69081;SDS011;69029;51.986;5.760;2023-04-29T07:04:40;17.27;;;9.90;;
69081;SDS011;69029;51.986;5.760;2023-04-29T07:07:05;17.88;;;10.23;;
69081;SDS011;69029;51.986;5.760;2023-04-29T07:09:31;14.85;;;9.82;;
69081;SDS011;69029;51.986;5.760;2023-04-29T07:11:57;18.55;;;9.77;;
69081;SDS011;69029;51.986;5.760;2023-04-29T07:14:22;17.33;;;10.07;;
69081;SDS011;69029;51.986;5.760;2023-04-29T07:16:52;17.48;;;9.65;;
69081;SDS011;69029;51.986;5.760;2023-04-29T07:19:18;17.08;;;10.00;;
69081;SDS011;69029;51.986;5.760;2023-04-29T07:21:43;21.58;;;9.85;;
69081;SDS011;69029;51.986;5.760;2023-04-29T07:24:09;17.90;;;9.73;;
69081;SDS011;69029;51.986;5.760;2023-04-29T07:26:35;17.02;;;9.50;;
69081;SDS011;69029;51.986;5.760;2023-04-29T07:29:00;14.43;;;9.30;;
69081;SDS011;69029;51.986;5.760;2023-04-29T07:31:29;18.40;;;9.50;;
69081;SDS011;69029;51.986;5.760;2023-04-29T07:33:54;15.50;;;8.77;;
69081;SDS011;69029;51.986;5.760;2023-04-29T07:36:21;16.70;;;8.98;;
69081;SDS011;69029;51.986;5.760;2023-04-29T07:38:47;15.18;;;8.35;;
69081;SDS011;69029;51.986;5.760;2023-04-29T07:41:13;16.90;;;9.50;;
69081;SDS011;69029;51.986;5.760;2023-04-29T07:43:38;16.15;;;8.75;;
69081;SDS011;69029;51.986;5.760;2023-04-29T07:46:04;17.10;;;8.60;;
69081;SDS011;69029;51.986;5.760;2023-04-29T07:48:30;13.00;;;8.07;;
69081;SDS011;69029;51.986;5.760;2023-04-29T07:51:00;19.33;;;8.32;;
69081;SDS011;69029;51.986;5.760;2023-04-29T07:53:25;14.70;;;7.30;;
69081;SDS011;69029;51.986;5.760;2023-04-29T07:55:51;17.70;;;8.38;;
69081;SDS011;69029;51.986;5.760;2023-04-29T07:58:16;15.80;;;8.38;;
69081;SDS011;69029;51.986;5.760;2023-04-29T08:00:42;15.02;;;8.65;;
69081;SDS011;69029;51.986;5.760;2023-04-29T08:03:07;16.05;;;8.40;;
69081;SDS011;69029;51.986;5.760;2023-04-29T08:05:34;16.33;;;7.60;;
69081;SDS011;69029;51.986;5.760;2023-04-29T08:08:00;13.15;;;8.25;;
69081;SDS011;69029;51.986;5.760;2023-04-29T08:10:25;11.25;;;7.18;;
69081;SDS011;69029;51.986;5.760;2023-04-29T08:12:51;14.88;;;7.97;;
69081;SDS011;69029;51.986;5.760;2023-04-29T08:15:16;15.75;;;7.72;;
69081;SDS011;69029;51.986;5.760;2023-04-29T08:17:42;14.35;;;7.35;;
69081;SDS011;69029;51.986;5.760;2023-04-29T08:20:08;15.00;;;7.93;;
69081;SDS011;69029;51.986;5.760;2023-04-29T08:22:34;12.77;;;7.55;;
69081;SDS011;69029;51.986;5.760;2023-04-29T08:25:00;14.88;;;7.63;;
69081;SDS011;69029;51.986;5.760;2023-04-29T08:27:27;10.00;;;7.00;;
69081;SDS011;69029;51.986;5.760;2023-04-29T08:29:53;14.32;;;7.25;;
69081;SDS011;69029;51.986;5.760;2023-04-29T08:32:20;14.05;;;7.20;;
69081;SDS011;69029;51.986;5.760;2023-04-29T08:34:45;13.38;;;7.13;;
69081;SDS011;69029;51.986;5.760;2023-04-29T08:37:11;12.80;;;6.78;;
69081;SDS011;69029;51.986;5.760;2023-04-29T08:39:36;12.77;;;6.80;;
69081;SDS011;69029;51.986;5.760;2023-04-29T08:42:08;13.35;;;6.97;;
69081;SDS011;69029;51.986;5.760;2023-04-29T08:44:34;11.27;;;7.13;;
69081;SDS011;69029;51.986;5.760;2023-04-29T08:47:01;13.40;;;7.60;;
69081;SDS011;69029;51.986;5.760;2023-04-29T08:49:27;12.70;;;7.68;;
69081;SDS011;69029;51.986;5.760;2023-04-29T08:51:53;12.38;;;6.70;;
69081;SDS011;69029;51.986;5.760;2023-04-29T08:54:19;12.95;;;7.10;;
69081;SDS011;69029;51.986;5.760;2023-04-29T08:56:45;12.52;;;6.15;;
69081;SDS011;69029;51.986;5.760;2023-04-29T08:59:13;12.73;;;7.20;;
69081;SDS011;69029;51.986;5.760;2023-04-29T09:01:40;9.85;;;6.28;;
69081;SDS011;69029;51.986;5.760;2023-04-29T09:06:55;10.68;;;5.78;;
69081;SDS011;69029;51.986;5.760;2023-04-29T09:09:22;9.20;;;5.80;;
69081;SDS011;69029;51.986;5.760;2023-04-29T09:11:49;10.02;;;5.80;;
69081;SDS011;69029;51.986;5.760;2023-04-29T09:14:14;10.98;;;5.13;;
69081;SDS011;69029;51.986;5.760;2023-04-29T09:16:40;12.18;;;5.10;;
69081;SDS011;69029;51.986;5.760;2023-04-29T09:19:06;9.35;;;5.90;;
69081;SDS011;69029;51.986;5.760;2023-04-29T09:21:31;9.75;;;5.68;;
69081;SDS011;69029;51.986;5.760;2023-04-29T09:24:00;7.97;;;5.25;;
69081;SDS011;69029;51.986;5.760;2023-04-29T09:26:32;8.98;;;5.07;;
69081;SDS011;69029;51.986;5.760;2023-04-29T09:29:09;9.88;;;5.50;;
69081;SDS011;69029;51.986;5.760;2023-04-29T09:31:37;8.87;;;5.10;;
69081;SDS011;69029;51.986;5.760;2023-04-29T09:34:04;11.55;;;5.47;;
69081;SDS011;69029;51.986;5.760;2023-04-29T09:36:46;8.95;;;5.18;;
69081;SDS011;69029;51.986;5.760;2023-04-29T09:39:14;17.00;;;5.67;;
69081;SDS011;69029;51.986;5.760;2023-04-29T09:47:04;11.25;;;4.53;;
69081;SDS011;69029;51.986;5.760;2023-04-29T09:49:32;7.60;;;4.63;;
69081;SDS011;69029;51.986;5.760;2023-04-29T09:52:06;8.77;;;4.22;;
69081;SDS011;69029;51.986;5.760;2023-04-29T09:54:34;8.32;;;4.38;;
69081;SDS011;69029;51.986;5.760;2023-04-29T09:57:03;8.25;;;4.07;;
69081;SDS011;69029;51.986;5.760;2023-04-29T09:59:33;10.68;;;3.90;;
69081;SDS011;69029;51.986;5.760;2023-04-29T10:02:00;6.18;;;3.75;;
69081;SDS011;69029;51.986;5.760;2023-04-29T10:04:31;8.48;;;4.70;;
69081;SDS011;69029;51.986;5.760;2023-04-29T10:07:04;5.90;;;4.22;;
69081;SDS011;69029;51.986;5.760;2023-04-29T10:09:30;6.60;;;3.60;;
69081;SDS011;69029;51.986;5.760;2023-04-29T10:11:56;4.93;;;3.55;;
69081;SDS011;69029;51.986;5.760;2023-04-29T10:14:22;7.82;;;3.53;;
69081;SDS011;69029;51.986;5.760;2023-04-29T10:17:00;6.57;;;3.25;;
69081;SDS011;69029;51.986;5.760;2023-04-29T10:21:59;7.93;;;3.60;;
69081;SDS011;69029;51.986;5.760;2023-04-29T10:24:43;7.22;;;3.20;;
69081;SDS011;69029;51.986;5.760;2023-04-29T10:27:10;4.85;;;3.17;;
69081;SDS011;69029;51.986;5.760;2023-04-29T10:29:38;3.50;;;2.90;;
69081;SDS011;69029;51.986;5.760;2023-04-29T10:32:09;6.25;;;3.60;;
69081;SDS011;69029;51.986;5.760;2023-04-29T10:34:36;7.15;;;3.10;;
69081;SDS011;69029;51.986;5.760;2023-04-29T10:37:04;4.50;;;2.95;;
69081;SDS011;69029;51.986;5.760;2023-04-29T10:40:21;5.75;;;3.10;;
69081;SDS011;69029;51.986;5.760;2023-04-29T10:45:17;5.45;;;2.92;;
69081;SDS011;69029;51.986;5.760;2023-04-29T10:53:14;4.40;;;2.72;;
69081;SDS011;69029;51.986;5.760;2023-04-29T10:55:40;5.40;;;2.90;;
69081;SDS011;69029;51.986;5.760;2023-04-29T11:01:11;4.60;;;3.10;;
69081;SDS011;69029;51.986;5.760;2023-04-29T11:03:52;5.90;;;3.67;;
69081;SDS011;69029;51.986;5.760;2023-04-29T11:06:19;5.47;;;3.38;;
69081;SDS011;69029;51.986;5.760;2023-04-29T11:08:58;6.30;;;3.58;;
69081;SDS011;69029;51.986;5.760;2023-04-29T11:11:25;5.15;;;3.30;;
69081;SDS011;69029;51.986;5.760;2023-04-29T11:13:50;7.30;;;3.40;;
69081;SDS011;69029;51.986;5.760;2023-04-29T11:16:21;5.88;;;3.22;;
69081;SDS011;69029;51.986;5.760;2023-04-29T11:19:03;6.03;;;3.72;;
69081;SDS011;69029;51.986;5.760;2023-04-29T11:21:32;8.02;;;3.53;;
69081;SDS011;69029;51.986;5.760;2023-04-29T11:23:59;6.78;;;3.50;;
69081;SDS011;69029;51.986;5.760;2023-04-29T11:26:25;6.95;;;3.58;;
69081;SDS011;69029;51.986;5.760;2023-04-29T11:28:51;7.30;;;3.22;;
69081;SDS011;69029;51.986;5.760;2023-04-29T11:31:17;5.63;;;3.38;;
69081;SDS011;69029;51.986;5.760;2023-04-29T11:33:43;6.07;;;3.65;;
69081;SDS011;69029;51.986;5.760;2023-04-29T11:36:10;7.25;;;2.97;;
69081;SDS011;69029;51.986;5.760;2023-04-29T11:38:38;6.63;;;3.13;;
69081;SDS011;69029;51.986;5.760;2023-04-29T11:41:05;6.45;;;3.00;;
69081;SDS011;69029;51.986;5.760;2023-04-29T11:43:31;4.20;;;2.50;;
69081;SDS011;69029;51.986;5.760;2023-04-29T11:45:56;4.28;;;2.30;;
69081;SDS011;69029;51.986;5.760;2023-04-29T11:48:25;2.85;;;2.40;;
69081;SDS011;69029;51.986;5.760;2023-04-29T11:50:55;4.93;;;2.20;;
69081;SDS011;69029;51.986;5.760;2023-04-29T11:53:23;7.93;;;2.53;;
69081;SDS011;69029;51.986;5.760;2023-04-29T11:55:54;4.45;;;2.50;;
69081;SDS011;69029;51.986;5.760;2023-04-29T11:58:20;6.40;;;2.55;;
69081;SDS011;69029;51.986;5.760;2023-04-29T12:00:46;8.82;;;2.72;;
69081;SDS011;69029;51.986;5.760;2023-04-29T12:03:15;6.88;;;3.70;;
69081;SDS011;69029;51.986;5.760;2023-04-29T12:05:52;6.65;;;3.28;;
69081;SDS011;69029;51.986;5.760;2023-04-29T12:08:19;4.03;;;3.15;;
69081;SDS011;69029;51.986;5.760;2023-04-29T12:10:49;5.70;;;3.10;;
69081;SDS011;69029;51.986;5.760;2023-04-29T12:13:17;6.07;;;2.53;;
69081;SDS011;69029;51.986;5.760;2023-04-29T12:15:47;4.00;;;2.60;;
69081;SDS011;69029;51.986;5.760;2023-04-29T12:18:15;4.53;;;2.35;;
69081;SDS011;69029;51.986;5.760;2023-04-29T12:20:42;4.78;;;2.30;;
69081;SDS011;69029;51.986;5.760;2023-04-29T12:23:13;6.65;;;3.20;;
69081;SDS011;69029;51.986;5.760;2023-04-29T12:25:49;5.85;;;3.20;;
69081;SDS011;69029;51.986;5.760;2023-04-29T12:28:16;7.05;;;3.03;;
69081;SDS011;69029;51.986;5.760;2023-04-29T12:30:45;5.13;;;2.60;;
69081;SDS011;69029;51.986;5.760;2023-04-29T12:33:14;6.22;;;2.60;;
69081;SDS011;69029;51.986;5.760;2023-04-29T12:35:44;5.05;;;2.65;;
69081;SDS011;69029;51.986;5.760;2023-04-29T12:38:09;4.63;;;2.40;;
69081;SDS011;69029;51.986;5.760;2023-04-29T12:40:36;6.57;;;2.50;;
69081;SDS011;69029;51.986;5.760;2023-04-29T12:43:09;3.65;;;2.22;;
69081;SDS011;69029;51.986;5.760;2023-04-29T12:48:00;5.43;;;2.40;;
69081;SDS011;69029;51.986;5.760;2023-04-29T12:52:59;5.35;;;2.20;;
69081;SDS011;69029;51.986;5.760;2023-04-29T12:55:25;5.38;;;2.50;;
69081;SDS011;69029;51.986;5.760;2023-04-29T12:57:51;4.32;;;2.38;;
69081;SDS011;69029;51.986;5.760;2023-04-29T13:00:17;7.78;;;3.05;;
69081;SDS011;69029;51.986;5.760;2023-04-29T13:02:44;6.57;;;2.50;;
69081;SDS011;69029;51.986;5.760;2023-04-29T13:05:11;4.45;;;2.10;;
69081;SDS011;69029;51.986;5.760;2023-04-29T13:07:39;5.78;;;2.30;;
69081;SDS011;69029;51.986;5.760;2023-04-29T13:10:05;5.47;;;1.90;;
69081;SDS011;69029;51.986;5.760;2023-04-29T13:12:32;5.53;;;2.00;;
69081;SDS011;69029;51.986;5.760;2023-04-29T13:14:58;4.88;;;2.10;;
69081;SDS011;69029;51.986;5.760;2023-04-29T13:17:23;3.15;;;2.10;;
69081;SDS011;69029;51.986;5.760;2023-04-29T13:19:49;4.63;;;2.05;;
69081;SDS011;69029;51.986;5.760;2023-04-29T13:22:15;4.93;;;1.90;;
69081;SDS011;69029;51.986;5.760;2023-04-29T13:24:41;2.97;;;1.50;;
69081;SDS011;69029;51.986;5.760;2023-04-29T13:27:07;7.00;;;1.73;;
69081;SDS011;69029;51.986;5.760;2023-04-29T13:29:36;3.08;;;1.63;;
69081;SDS011;69029;51.986;5.760;2023-04-29T13:32:01;5.47;;;2.00;;
69081;SDS011;69029;51.986;5.760;2023-04-29T13:34:33;2.35;;;1.70;;
69081;SDS011;69029;51.986;5.760;2023-04-29T13:36:59;2.83;;;1.70;;
69081;SDS011;69029;51.986;5.760;2023-04-29T13:39:24;6.88;;;1.63;;
69081;SDS011;69029;51.986;5.760;2023-04-29T13:41:50;3.38;;;1.55;;
69081;SDS011;69029;51.986;5.760;2023-04-29T13:44:15;3.35;;;1.58;;
69081;SDS011;69029;51.986;5.760;2023-04-29T13:46:42;2.55;;;1.60;;
69081;SDS011;69029;51.986;5.760;2023-04-29T13:49:07;3.08;;;1.50;;
69081;SDS011;69029;51.986;5.760;2023-04-29T13:51:33;3.13;;;1.50;;
69081;SDS011;69029;51.986;5.760;2023-04-29T13:53:58;4.10;;;1.42;;
69081;SDS011;69029;51.986;5.760;2023-04-29T13:56:25;3.65;;;1.33;;
69081;SDS011;69029;51.986;5.760;2023-04-29T13:58:50;3.05;;;1.40;;
69081;SDS011;69029;51.986;5.760;2023-04-29T14:01:16;3.28;;;1.08;;
69081;SDS011;69029;51.986;5.760;2023-04-29T14:03:41;2.45;;;1.35;;
69081;SDS011;69029;51.986;5.760;2023-04-29T14:06:08;3.70;;;1.60;;
69081;SDS011;69029;51.986;5.760;2023-04-29T14:08:34;5.13;;;1.30;;
69081;SDS011;69029;51.986;5.760;2023-04-29T14:10:59;4.05;;;1.42;;
69081;SDS011;69029;51.986;5.760;2023-04-29T14:13:25;3.38;;;1.38;;
69081;SDS011;69029;51.986;5.760;2023-04-29T14:15:51;2.25;;;1.20;;
69081;SDS011;69029;51.986;5.760;2023-04-29T14:18:18;3.78;;;1.35;;
69081;SDS011;69029;51.986;5.760;2023-04-29T14:20:43;2.58;;;1.42;;
69081;SDS011;69029;51.986;5.760;2023-04-29T14:23:09;5.38;;;1.75;;
69081;SDS011;69029;51.986;5.760;2023-04-29T14:25:34;3.20;;;1.42;;
69081;SDS011;69029;51.986;5.760;2023-04-29T14:28:00;2.47;;;1.40;;
69081;SDS011;69029;51.986;5.760;2023-04-29T14:30:26;3.22;;;1.83;;
69081;SDS011;69029;51.986;5.760;2023-04-29T14:32:51;5.43;;;1.80;;
69081;SDS011;69029;51.986;5.760;2023-04-29T14:35:17;4.40;;;2.53;;
69081;SDS011;69029;51.986;5.760;2023-04-29T14:37:42;5.97;;;2.60;;
69081;SDS011;69029;51.986;5.760;2023-04-29T14:40:08;4.18;;;2.30;;
69081;SDS011;69029;51.986;5.760;2023-04-29T14:42:34;6.07;;;2.13;;
69081;SDS011;69029;51.986;5.760;2023-04-29T14:45:00;3.30;;;2.00;;
69081;SDS011;69029;51.986;5.760;2023-04-29T14:47:26;2.88;;;1.88;;
69081;SDS011;69029;51.986;5.760;2023-04-29T14:49:52;5.95;;;2.25;;
69081;SDS011;69029;51.986;5.760;2023-04-29T14:52:18;4.22;;;2.45;;
69081;SDS011;69029;51.986;5.760;2023-04-29T14:54:43;4.20;;;2.05;;
69081;SDS011;69029;51.986;5.760;2023-04-29T14:57:09;5.10;;;2.55;;
69081;SDS011;69029;51.986;5.760;2023-04-29T14:59:34;4.07;;;2.85;;
69081;SDS011;69029;51.986;5.760;2023-04-29T15:02:00;9.52;;;3.50;;
69081;SDS011;69029;51.986;5.760;2023-04-29T15:04:26;6.22;;;2.80;;
69081;SDS011;69029;51.986;5.760;2023-04-29T15:06:52;6.15;;;2.83;;
69081;SDS011;69029;51.986;5.760;2023-04-29T15:09:18;9.77;;;3.03;;